sensor_id;sensor_type;location;lat;lon;timestamp;P1;durP1;ratioP1;P2;durP2;ratioP2
14167;SDS011;7163;50.626;12.922;2023-04-25T00:03:17;14.20;;;9.87;;
14167;SDS011;7163;50.626;12.922;2023-04-25T00:08:23;21.03;;;11.10;;
14167;SDS011;7163;50.626;12.922;2023-04-25T00:13:25;20.00;;;11.40;;
14167;SDS011;7163;50.626;12.922;2023-04-25T00:18:26;18.47;;;11.70;;
14167;SDS011;7163;50.626;12.922;2023-04-25T00:23:28;22.30;;;11.60;;
14167;SDS011;7163;50.626;12.922;2023-04-25T00:28:29;22.33;;;12.07;;
14167;SDS011;7163;50.626;12.922;2023-04-25T00:33:29;26.20;;;12.17;;
14167;SDS011;7163;50.626;12.922;2023-04-25T00:38:31;23.83;;;13.07;;
14167;SDS011;7163;50.626;12.922;2023-04-25T00:43:31;27.07;;;13.60;;
14167;SDS011;7163;50.626;12.922;2023-04-25T00:48:32;24.83;;;13.73;;
14167;SDS011;7163;50.626;12.922;2023-04-25T00:53:33;27.03;;;13.60;;
14167;SDS011;7163;50.626;12.922;2023-04-25T00:58:33;21.03;;;12.70;;
14167;SDS011;7163;50.626;12.922;2023-04-25T01:03:33;23.40;;;12.90;;
14167;SDS011;7163;50.626;12.922;2023-04-25T01:08:36;21.17;;;12.37;;
14167;SDS011;7163;50.626;12.922;2023-04-25T01:13:37;20.93;;;11.57;;
14167;SDS011;7163;50.626;12.922;2023-04-25T01:18:38;20.43;;;10.93;;
14167;SDS011;7163;50.626;12.922;2023-04-25T01:23:39;20.73;;;11.30;;
14167;SDS011;7163;50.626;12.922;2023-04-25T01:28:40;18.07;;;10.67;;
14167;SDS011;7163;50.626;12.922;2023-04-25T01:33:43;22.60;;;11.73;;
14167;SDS011;7163;50.626;12.922;2023-04-25T01:38:44;19.83;;;11.03;;
14167;SDS011;7163;50.626;12.922;2023-04-25T01:43:46;20.10;;;12.93;;
14167;SDS011;7163;50.626;12.922;2023-04-25T01:48:46;18.60;;;10.90;;
14167;SDS011;7163;50.626;12.922;2023-04-25T01:53:47;19.03;;;10.90;;
14167;SDS011;7163;50.626;12.922;2023-04-25T01:58:48;18.53;;;9.97;;
14167;SDS011;7163;50.626;12.922;2023-04-25T02:03:48;18.97;;;11.33;;
14167;SDS011;7163;50.626;12.922;2023-04-25T02:08:49;17.57;;;9.77;;
14167;SDS011;7163;50.626;12.922;2023-04-25T02:13:50;18.43;;;10.47;;
14167;SDS011;7163;50.626;12.922;2023-04-25T02:18:50;18.33;;;10.97;;
14167;SDS011;7163;50.626;12.922;2023-04-25T02:23:52;16.67;;;10.27;;
14167;SDS011;7163;50.626;12.922;2023-04-25T02:28:53;17.37;;;10.63;;
14167;SDS011;7163;50.626;12.922;2023-04-25T02:33:54;16.10;;;10.20;;
14167;SDS011;7163;50.626;12.922;2023-04-25T02:38:55;18.47;;;11.10;;
14167;SDS011;7163;50.626;12.922;2023-04-25T02:43:55;18.87;;;11.43;;
14167;SDS011;7163;50.626;12.922;2023-04-25T02:48:56;21.10;;;11.10;;
14167;SDS011;7163;50.626;12.922;2023-04-25T02:53:56;17.70;;;10.10;;
14167;SDS011;7163;50.626;12.922;2023-04-25T02:58:57;14.77;;;9.23;;
14167;SDS011;7163;50.626;12.922;2023-04-25T03:03:57;17.97;;;9.67;;
14167;SDS011;7163;50.626;12.922;2023-04-25T03:08:57;16.80;;;9.17;;
14167;SDS011;7163;50.626;12.922;2023-04-25T03:13:58;14.73;;;9.60;;
14167;SDS011;7163;50.626;12.922;2023-04-25T03:18:58;16.27;;;9.40;;
14167;SDS011;7163;50.626;12.922;2023-04-25T03:23:59;20.03;;;10.43;;
14167;SDS011;7163;50.626;12.922;2023-04-25T03:29:00;18.00;;;10.83;;
14167;SDS011;7163;50.626;12.922;2023-04-25T03:34:00;18.10;;;10.77;;
14167;SDS011;7163;50.626;12.922;2023-04-25T03:39:01;16.80;;;11.47;;
14167;SDS011;7163;50.626;12.922;2023-04-25T03:44:01;15.87;;;11.27;;
14167;SDS011;7163;50.626;12.922;2023-04-25T03:49:02;24.67;;;13.03;;
14167;SDS011;7163;50.626;12.922;2023-04-25T03:54:02;19.83;;;12.00;;
14167;SDS011;7163;50.626;12.922;2023-04-25T03:59:03;19.87;;;11.50;;
14167;SDS011;7163;50.626;12.922;2023-04-25T04:04:03;20.40;;;12.07;;
14167;SDS011;7163;50.626;12.922;2023-04-25T04:09:04;20.83;;;12.83;;
14167;SDS011;7163;50.626;12.922;2023-04-25T04:14:06;21.53;;;12.90;;
14167;SDS011;7163;50.626;12.922;2023-04-25T04:19:07;24.23;;;14.87;;
14167;SDS011;7163;50.626;12.922;2023-04-25T04:24:07;23.77;;;13.53;;
14167;SDS011;7163;50.626;12.922;2023-04-25T04:29:09;22.70;;;14.50;;
14167;SDS011;7163;50.626;12.922;2023-04-25T04:34:10;22.23;;;13.67;;
14167;SDS011;7163;50.626;12.922;2023-04-25T04:39:11;25.80;;;15.33;;
14167;SDS011;7163;50.626;12.922;2023-04-25T04:44:11;25.03;;;15.67;;
14167;SDS011;7163;50.626;12.922;2023-04-25T04:49:12;22.97;;;14.80;;
14167;SDS011;7163;50.626;12.922;2023-04-25T04:54:13;27.83;;;16.37;;
14167;SDS011;7163;50.626;12.922;2023-04-25T04:59:14;24.17;;;14.00;;
14167;SDS011;7163;50.626;12.922;2023-04-25T05:04:15;21.73;;;15.13;;
14167;SDS011;7163;50.626;12.922;2023-04-25T05:09:15;23.73;;;15.70;;
14167;SDS011;7163;50.626;12.922;2023-04-25T05:14:16;24.17;;;15.33;;
14167;SDS011;7163;50.626;12.922;2023-04-25T05:19:17;24.93;;;15.13;;
14167;SDS011;7163;50.626;12.922;2023-04-25T05:24:18;24.97;;;15.57;;
14167;SDS011;7163;50.626;12.922;2023-04-25T05:29:19;27.97;;;17.97;;
14167;SDS011;7163;50.626;12.922;2023-04-25T05:34:19;24.73;;;17.10;;
14167;SDS011;7163;50.626;12.922;2023-04-25T05:39:20;33.10;;;19.93;;
14167;SDS011;7163;50.626;12.922;2023-04-25T05:44:21;26.50;;;17.03;;
14167;SDS011;7163;50.626;12.922;2023-04-25T05:49:21;45.57;;;20.60;;
14167;SDS011;7163;50.626;12.922;2023-04-25T05:54:22;21.50;;;12.50;;
14167;SDS011;7163;50.626;12.922;2023-04-25T05:59:22;17.43;;;12.23;;
14167;SDS011;7163;50.626;12.922;2023-04-25T06:04:23;18.33;;;11.80;;
14167;SDS011;7163;50.626;12.922;2023-04-25T06:09:23;22.03;;;14.33;;
14167;SDS011;7163;50.626;12.922;2023-04-25T06:14:24;24.53;;;15.57;;
14167;SDS011;7163;50.626;12.922;2023-04-25T06:19:28;29.67;;;18.13;;
14167;SDS011;7163;50.626;12.922;2023-04-25T06:24:28;28.03;;;17.40;;
14167;SDS011;7163;50.626;12.922;2023-04-25T06:29:29;20.60;;;14.07;;
14167;SDS011;7163;50.626;12.922;2023-04-25T06:34:29;23.77;;;13.07;;
14167;SDS011;7163;50.626;12.922;2023-04-25T06:39:33;22.63;;;11.87;;
14167;SDS011;7163;50.626;12.922;2023-04-25T06:44:33;21.27;;;11.77;;
14167;SDS011;7163;50.626;12.922;2023-04-25T06:49:43;20.90;;;11.57;;
14167;SDS011;7163;50.626;12.922;2023-04-25T06:54:44;16.57;;;9.73;;
14167;SDS011;7163;50.626;12.922;2023-04-25T06:59:45;17.43;;;9.27;;
14167;SDS011;7163;50.626;12.922;2023-04-25T07:04:46;12.20;;;8.43;;
14167;SDS011;7163;50.626;12.922;2023-04-25T07:09:46;14.60;;;8.20;;
14167;SDS011;7163;50.626;12.922;2023-04-25T07:14:47;11.77;;;6.80;;
14167;SDS011;7163;50.626;12.922;2023-04-25T07:19:48;11.23;;;7.17;;
14167;SDS011;7163;50.626;12.922;2023-04-25T07:24:48;11.87;;;6.90;;
14167;SDS011;7163;50.626;12.922;2023-04-25T07:29:49;16.23;;;8.97;;
14167;SDS011;7163;50.626;12.922;2023-04-25T07:34:49;14.80;;;9.77;;
14167;SDS011;7163;50.626;12.922;2023-04-25T07:39:51;16.10;;;10.50;;
14167;SDS011;7163;50.626;12.922;2023-04-25T07:44:51;17.17;;;10.03;;
14167;SDS011;7163;50.626;12.922;2023-04-25T07:49:52;15.93;;;8.93;;
14167;SDS011;7163;50.626;12.922;2023-04-25T07:54:52;13.73;;;7.53;;
14167;SDS011;7163;50.626;12.922;2023-04-25T07:59:53;14.20;;;8.57;;
14167;SDS011;7163;50.626;12.922;2023-04-25T08:04:54;11.90;;;7.60;;
14167;SDS011;7163;50.626;12.922;2023-04-25T08:09:55;12.87;;;6.90;;
14167;SDS011;7163;50.626;12.922;2023-04-25T08:14:56;11.87;;;8.27;;
14167;SDS011;7163;50.626;12.922;2023-04-25T08:19:56;13.50;;;7.30;;
14167;SDS011;7163;50.626;12.922;2023-04-25T08:24:57;14.20;;;8.73;;
14167;SDS011;7163;50.626;12.922;2023-04-25T08:29:57;15.00;;;8.07;;
14167;SDS011;7163;50.626;12.922;2023-04-25T08:34:58;14.10;;;6.53;;
14167;SDS011;7163;50.626;12.922;2023-04-25T08:39:59;10.53;;;6.13;;
14167;SDS011;7163;50.626;12.922;2023-04-25T08:45:00;9.80;;;5.70;;
14167;SDS011;7163;50.626;12.922;2023-04-25T08:50:03;9.57;;;5.73;;
14167;SDS011;7163;50.626;12.922;2023-04-25T08:55:06;7.40;;;5.17;;
14167;SDS011;7163;50.626;12.922;2023-04-25T09:00:09;9.90;;;5.70;;
14167;SDS011;7163;50.626;12.922;2023-04-25T09:05:11;9.83;;;6.50;;
14167;SDS011;7163;50.626;12.922;2023-04-25T09:10:13;15.63;;;8.50;;
14167;SDS011;7163;50.626;12.922;2023-04-25T09:15:22;12.50;;;7.07;;
14167;SDS011;7163;50.626;12.922;2023-04-25T09:25:45;12.57;;;6.97;;
14167;SDS011;7163;50.626;12.922;2023-04-25T09:30:48;16.93;;;8.03;;
14167;SDS011;7163;50.626;12.922;2023-04-25T09:35:48;11.83;;;8.07;;
14167;SDS011;7163;50.626;12.922;2023-04-25T09:40:55;20.63;;;10.80;;
14167;SDS011;7163;50.626;12.922;2023-04-25T09:45:56;15.97;;;10.07;;
14167;SDS011;7163;50.626;12.922;2023-04-25T09:51:10;18.43;;;7.67;;
14167;SDS011;7163;50.626;12.922;2023-04-25T09:56:17;17.03;;;8.60;;
14167;SDS011;7163;50.626;12.922;2023-04-25T10:01:20;12.83;;;7.10;;
14167;SDS011;7163;50.626;12.922;2023-04-25T10:06:22;17.50;;;10.10;;
14167;SDS011;7163;50.626;12.922;2023-04-25T10:11:26;12.77;;;7.77;;
14167;SDS011;7163;50.626;12.922;2023-04-25T10:16:27;10.20;;;7.13;;
14167;SDS011;7163;50.626;12.922;2023-04-25T10:21:31;11.80;;;6.70;;
14167;SDS011;7163;50.626;12.922;2023-04-25T10:26:31;11.90;;;7.17;;
14167;SDS011;7163;50.626;12.922;2023-04-25T10:31:32;10.40;;;5.20;;
14167;SDS011;7163;50.626;12.922;2023-04-25T10:36:36;10.00;;;4.50;;
14167;SDS011;7163;50.626;12.922;2023-04-25T10:41:55;6.80;;;4.17;;
14167;SDS011;7163;50.626;12.922;2023-04-25T10:47:34;9.87;;;4.30;;
14167;SDS011;7163;50.626;12.922;2023-04-25T10:52:35;7.47;;;5.03;;
14167;SDS011;7163;50.626;12.922;2023-04-25T10:57:42;11.67;;;4.83;;
14167;SDS011;7163;50.626;12.922;2023-04-25T11:02:47;7.63;;;4.70;;
14167;SDS011;7163;50.626;12.922;2023-04-25T11:07:53;10.63;;;5.30;;
14167;SDS011;7163;50.626;12.922;2023-04-25T11:12:57;11.83;;;4.47;;
14167;SDS011;7163;50.626;12.922;2023-04-25T11:18:01;7.27;;;4.77;;
14167;SDS011;7163;50.626;12.922;2023-04-25T11:23:04;14.43;;;5.50;;
14167;SDS011;7163;50.626;12.922;2023-04-25T11:28:04;10.10;;;6.97;;
14167;SDS011;7163;50.626;12.922;2023-04-25T11:33:05;13.80;;;8.20;;
14167;SDS011;7163;50.626;12.922;2023-04-25T11:38:06;14.13;;;9.37;;
14167;SDS011;7163;50.626;12.922;2023-04-25T11:43:09;20.10;;;11.00;;
14167;SDS011;7163;50.626;12.922;2023-04-25T11:48:10;14.20;;;8.47;;
14167;SDS011;7163;50.626;12.922;2023-04-25T11:53:16;10.87;;;7.00;;
14167;SDS011;7163;50.626;12.922;2023-04-25T11:58:18;13.90;;;9.17;;
14167;SDS011;7163;50.626;12.922;2023-04-25T12:03:19;15.53;;;9.80;;
14167;SDS011;7163;50.626;12.922;2023-04-25T12:08:23;12.93;;;7.90;;
14167;SDS011;7163;50.626;12.922;2023-04-25T12:13:24;9.67;;;6.90;;
14167;SDS011;7163;50.626;12.922;2023-04-25T12:18:27;27.70;;;13.70;;
14167;SDS011;7163;50.626;12.922;2023-04-25T12:23:28;14.63;;;8.80;;
14167;SDS011;7163;50.626;12.922;2023-04-25T12:28:33;20.57;;;11.10;;
14167;SDS011;7163;50.626;12.922;2023-04-25T12:33:37;25.60;;;14.27;;
14167;SDS011;7163;50.626;12.922;2023-04-25T12:38:38;18.37;;;11.47;;
14167;SDS011;7163;50.626;12.922;2023-04-25T12:43:40;20.40;;;13.57;;
14167;SDS011;7163;50.626;12.922;2023-04-25T12:48:42;16.03;;;10.60;;
14167;SDS011;7163;50.626;12.922;2023-04-25T12:53:43;23.10;;;14.57;;
14167;SDS011;7163;50.626;12.922;2023-04-25T12:58:49;20.83;;;14.70;;
14167;SDS011;7163;50.626;12.922;2023-04-25T13:03:50;22.57;;;13.63;;
14167;SDS011;7163;50.626;12.922;2023-04-25T13:09:02;24.83;;;15.10;;
14167;SDS011;7163;50.626;12.922;2023-04-25T13:14:09;26.87;;;16.27;;
14167;SDS011;7163;50.626;12.922;2023-04-25T13:19:21;20.70;;;11.20;;
14167;SDS011;7163;50.626;12.922;2023-04-25T13:24:34;28.43;;;15.87;;
14167;SDS011;7163;50.626;12.922;2023-04-25T13:29:37;22.90;;;13.40;;
14167;SDS011;7163;50.626;12.922;2023-04-25T13:34:43;15.53;;;10.03;;
14167;SDS011;7163;50.626;12.922;2023-04-25T13:39:43;16.00;;;10.17;;
14167;SDS011;7163;50.626;12.922;2023-04-25T13:44:44;22.27;;;12.20;;
14167;SDS011;7163;50.626;12.922;2023-04-25T13:49:47;16.37;;;9.50;;
14167;SDS011;7163;50.626;12.922;2023-04-25T13:54:48;14.07;;;9.53;;
14167;SDS011;7163;50.626;12.922;2023-04-25T13:59:51;27.53;;;14.03;;
14167;SDS011;7163;50.626;12.922;2023-04-25T14:04:52;20.93;;;10.67;;
14167;SDS011;7163;50.626;12.922;2023-04-25T14:09:53;18.17;;;10.87;;
14167;SDS011;7163;50.626;12.922;2023-04-25T14:14:54;21.37;;;11.53;;
14167;SDS011;7163;50.626;12.922;2023-04-25T14:19:54;15.23;;;8.70;;
14167;SDS011;7163;50.626;12.922;2023-04-25T14:24:55;17.30;;;8.87;;
14167;SDS011;7163;50.626;12.922;2023-04-25T14:29:55;12.37;;;7.60;;
14167;SDS011;7163;50.626;12.922;2023-04-25T14:34:56;12.50;;;6.20;;
14167;SDS011;7163;50.626;12.922;2023-04-25T14:39:57;18.03;;;8.93;;
14167;SDS011;7163;50.626;12.922;2023-04-25T14:44:58;16.23;;;8.23;;
14167;SDS011;7163;50.626;12.922;2023-04-25T14:50:02;10.27;;;5.93;;
14167;SDS011;7163;50.626;12.922;2023-04-25T14:55:02;14.80;;;6.67;;
14167;SDS011;7163;50.626;12.922;2023-04-25T15:00:07;14.77;;;5.07;;
14167;SDS011;7163;50.626;12.922;2023-04-25T15:05:09;19.67;;;10.43;;
14167;SDS011;7163;50.626;12.922;2023-04-25T15:10:10;14.10;;;7.57;;
14167;SDS011;7163;50.626;12.922;2023-04-25T15:15:15;18.30;;;7.40;;
14167;SDS011;7163;50.626;12.922;2023-04-25T15:20:16;19.47;;;7.87;;
14167;SDS011;7163;50.626;12.922;2023-04-25T15:25:17;20.63;;;8.53;;
14167;SDS011;7163;50.626;12.922;2023-04-25T15:30:18;18.07;;;8.87;;
14167;SDS011;7163;50.626;12.922;2023-04-25T15:35:19;19.00;;;7.93;;
14167;SDS011;7163;50.626;12.922;2023-04-25T15:40:20;23.10;;;9.03;;
14167;SDS011;7163;50.626;12.922;2023-04-25T15:45:21;19.23;;;9.97;;
14167;SDS011;7163;50.626;12.922;2023-04-25T15:50:25;22.70;;;10.03;;
14167;SDS011;7163;50.626;12.922;2023-04-25T15:55:26;39.43;;;16.77;;
14167;SDS011;7163;50.626;12.922;2023-04-25T16:00:29;19.17;;;8.27;;
14167;SDS011;7163;50.626;12.922;2023-04-25T16:05:30;25.50;;;12.80;;
14167;SDS011;7163;50.626;12.922;2023-04-25T16:10:31;16.73;;;8.10;;
14167;SDS011;7163;50.626;12.922;2023-04-25T16:15:32;14.73;;;6.97;;
14167;SDS011;7163;50.626;12.922;2023-04-25T16:20:35;23.07;;;10.60;;
14167;SDS011;7163;50.626;12.922;2023-04-25T16:25:36;18.17;;;10.20;;
14167;SDS011;7163;50.626;12.922;2023-04-25T16:41:44;17.67;;;7.90;;
14167;SDS011;7163;50.626;12.922;2023-04-25T16:46:48;16.10;;;6.07;;
14167;SDS011;7163;50.626;12.922;2023-04-25T16:51:49;22.87;;;6.47;;
14167;SDS011;7163;50.626;12.922;2023-04-25T17:03:22;16.07;;;6.13;;
14167;SDS011;7163;50.626;12.922;2023-04-25T17:08:26;24.83;;;8.70;;
14167;SDS011;7163;50.626;12.922;2023-04-25T17:13:28;11.63;;;4.37;;
14167;SDS011;7163;50.626;12.922;2023-04-25T17:18:30;12.57;;;5.70;;
14167;SDS011;7163;50.626;12.922;2023-04-25T17:23:31;11.97;;;5.83;;
14167;SDS011;7163;50.626;12.922;2023-04-25T17:28:33;26.43;;;10.70;;
14167;SDS011;7163;50.626;12.922;2023-04-25T17:33:33;17.27;;;6.33;;
14167;SDS011;7163;50.626;12.922;2023-04-25T17:38:34;13.40;;;5.80;;
14167;SDS011;7163;50.626;12.922;2023-04-25T17:43:35;14.63;;;5.90;;
14167;SDS011;7163;50.626;12.922;2023-04-25T17:48:36;19.50;;;6.40;;
14167;SDS011;7163;50.626;12.922;2023-04-25T17:53:37;14.77;;;7.50;;
14167;SDS011;7163;50.626;12.922;2023-04-25T17:58:37;19.97;;;11.53;;
14167;SDS011;7163;50.626;12.922;2023-04-25T18:03:37;19.60;;;5.67;;
14167;SDS011;7163;50.626;12.922;2023-04-25T18:08:39;12.03;;;6.10;;
14167;SDS011;7163;50.626;12.922;2023-04-25T18:13:43;12.67;;;5.83;;
14167;SDS011;7163;50.626;12.922;2023-04-25T18:18:43;15.77;;;4.47;;
14167;SDS011;7163;50.626;12.922;2023-04-25T18:23:46;13.43;;;4.63;;
14167;SDS011;7163;50.626;12.922;2023-04-25T18:28:47;8.90;;;4.30;;
14167;SDS011;7163;50.626;12.922;2023-04-25T18:33:47;10.67;;;4.53;;
14167;SDS011;7163;50.626;12.922;2023-04-25T18:38:47;13.53;;;3.90;;
14167;SDS011;7163;50.626;12.922;2023-04-25T18:43:50;14.27;;;4.80;;
14167;SDS011;7163;50.626;12.922;2023-04-25T18:48:51;8.23;;;3.50;;
14167;SDS011;7163;50.626;12.922;2023-04-25T18:53:55;11.10;;;4.53;;
14167;SDS011;7163;50.626;12.922;2023-04-25T18:58:56;14.90;;;4.37;;
14167;SDS011;7163;50.626;12.922;2023-04-25T19:03:56;6.77;;;3.93;;
14167;SDS011;7163;50.626;12.922;2023-04-25T19:08:57;9.33;;;3.90;;
14167;SDS011;7163;50.626;12.922;2023-04-25T19:13:57;9.67;;;4.20;;
14167;SDS011;7163;50.626;12.922;2023-04-25T19:18:59;14.40;;;5.70;;
14167;SDS011;7163;50.626;12.922;2023-04-25T19:24:02;8.47;;;4.67;;
14167;SDS011;7163;50.626;12.922;2023-04-25T19:29:11;10.00;;;4.83;;
14167;SDS011;7163;50.626;12.922;2023-04-25T19:34:13;13.97;;;5.83;;
14167;SDS011;7163;50.626;12.922;2023-04-25T19:39:13;14.50;;;5.90;;
14167;SDS011;7163;50.626;12.922;2023-04-25T19:44:14;10.80;;;5.20;;
14167;SDS011;7163;50.626;12.922;2023-04-25T19:49:15;11.80;;;5.20;;
14167;SDS011;7163;50.626;12.922;2023-04-25T19:54:21;10.20;;;5.20;;
14167;SDS011;7163;50.626;12.922;2023-04-25T19:59:22;11.97;;;4.73;;
14167;SDS011;7163;50.626;12.922;2023-04-25T20:04:22;15.90;;;5.37;;
14167;SDS011;7163;50.626;12.922;2023-04-25T20:09:23;12.90;;;5.57;;
14167;SDS011;7163;50.626;12.922;2023-04-25T20:14:23;13.23;;;5.07;;
14167;SDS011;7163;50.626;12.922;2023-04-25T20:19:24;14.23;;;5.20;;
14167;SDS011;7163;50.626;12.922;2023-04-25T20:24:24;12.83;;;5.97;;
14167;SDS011;7163;50.626;12.922;2023-04-25T20:29:25;11.97;;;5.00;;
14167;SDS011;7163;50.626;12.922;2023-04-25T20:34:25;15.73;;;5.40;;
14167;SDS011;7163;50.626;12.922;2023-04-25T20:39:26;14.97;;;5.03;;
14167;SDS011;7163;50.626;12.922;2023-04-25T20:44:26;10.67;;;5.83;;
14167;SDS011;7163;50.626;12.922;2023-04-25T20:49:27;14.50;;;5.30;;
14167;SDS011;7163;50.626;12.922;2023-04-25T20:54:27;16.83;;;6.20;;
14167;SDS011;7163;50.626;12.922;2023-04-25T20:59:29;15.53;;;5.90;;
14167;SDS011;7163;50.626;12.922;2023-04-25T21:04:30;11.83;;;6.10;;
14167;SDS011;7163;50.626;12.922;2023-04-25T21:09:31;14.37;;;5.50;;
14167;SDS011;7163;50.626;12.922;2023-04-25T21:14:31;9.57;;;4.60;;
14167;SDS011;7163;50.626;12.922;2023-04-25T21:19:33;10.33;;;4.70;;
14167;SDS011;7163;50.626;12.922;2023-04-25T21:24:33;12.13;;;4.43;;
14167;SDS011;7163;50.626;12.922;2023-04-25T21:29:34;7.70;;;3.80;;
14167;SDS011;7163;50.626;12.922;2023-04-25T21:34:35;8.97;;;3.83;;
14167;SDS011;7163;50.626;12.922;2023-04-25T21:39:35;11.13;;;4.00;;
14167;SDS011;7163;50.626;12.922;2023-04-25T21:44:35;12.60;;;4.27;;
14167;SDS011;7163;50.626;12.922;2023-04-25T21:49:36;10.47;;;4.27;;
14167;SDS011;7163;50.626;12.922;2023-04-25T21:54:36;11.40;;;4.40;;
14167;SDS011;7163;50.626;12.922;2023-04-25T21:59:37;6.40;;;3.67;;
14167;SDS011;7163;50.626;12.922;2023-04-25T22:04:37;9.57;;;4.30;;
14167;SDS011;7163;50.626;12.922;2023-04-25T22:09:38;12.50;;;4.30;;
14167;SDS011;7163;50.626;12.922;2023-04-25T22:14:39;7.33;;;3.60;;
14167;SDS011;7163;50.626;12.922;2023-04-25T22:19:41;11.63;;;4.33;;
14167;SDS011;7163;50.626;12.922;2023-04-25T22:24:42;6.40;;;4.10;;
14167;SDS011;7163;50.626;12.922;2023-04-25T22:29:42;8.87;;;3.73;;
14167;SDS011;7163;50.626;12.922;2023-04-25T22:34:43;13.03;;;4.27;;
14167;SDS011;7163;50.626;12.922;2023-04-25T22:39:44;7.23;;;4.00;;
14167;SDS011;7163;50.626;12.922;2023-04-25T22:44:44;7.83;;;4.67;;
14167;SDS011;7163;50.626;12.922;2023-04-25T22:49:45;10.10;;;4.87;;
14167;SDS011;7163;50.626;12.922;2023-04-25T22:54:46;9.43;;;4.67;;
14167;SDS011;7163;50.626;12.922;2023-04-25T22:59:46;6.17;;;4.33;;
14167;SDS011;7163;50.626;12.922;2023-04-25T23:04:47;7.70;;;4.57;;
14167;SDS011;7163;50.626;12.922;2023-04-25T23:09:47;9.73;;;4.40;;
14167;SDS011;7163;50.626;12.922;2023-04-25T23:14:48;10.53;;;4.97;;
14167;SDS011;7163;50.626;12.922;2023-04-25T23:19:50;12.83;;;5.10;;
14167;SDS011;7163;50.626;12.922;2023-04-25T23:24:50;10.57;;;4.70;;
14167;SDS011;7163;50.626;12.922;2023-04-25T23:29:51;7.27;;;4.93;;
14167;SDS011;7163;50.626;12.922;2023-04-25T23:34:55;11.43;;;4.53;;
14167;SDS011;7163;50.626;12.922;2023-04-25T23:39:56;11.53;;;4.93;;
14167;SDS011;7163;50.626;12.922;2023-04-25T23:44:57;12.13;;;4.17;;
14167;SDS011;7163;50.626;12.922;2023-04-25T23:49:57;11.43;;;4.47;;
14167;SDS011;7163;50.626;12.922;2023-04-25T23:54:58;9.33;;;4.60;;
14167;SDS011;7163;50.626;12.922;2023-04-25T23:59:58;6.60;;;4.10;;
